sensor_id;sensor_type;location;lat;lon;timestamp;P1;durP1;ratioP1;P2;durP2;ratioP2
21301;SDS011;10810;48.270;9.996;2023-06-14T00:01:34;7.13;;;3.10;;
21301;SDS011;10810;48.270;9.996;2023-06-14T00:04:26;6.07;;;3.17;;
21301;SDS011;10810;48.270;9.996;2023-06-14T00:07:07;5.97;;;3.10;;
21301;SDS011;10810;48.270;9.996;2023-06-14T00:12:57;7.70;;;2.80;;
21301;SDS011;10810;48.270;9.996;2023-06-14T00:15:38;8.10;;;3.10;;
21301;SDS011;10810;48.270;9.996;2023-06-14T00:21:37;6.13;;;2.97;;
21301;SDS011;10810;48.270;9.996;2023-06-14T00:24:52;5.77;;;3.13;;
21301;SDS011;10810;48.270;9.996;2023-06-14T00:30:36;8.30;;;3.37;;
21301;SDS011;10810;48.270;9.996;2023-06-14T00:33:47;7.30;;;3.20;;
21301;SDS011;10810;48.270;9.996;2023-06-14T00:37:00;6.80;;;3.00;;
21301;SDS011;10810;48.270;9.996;2023-06-14T00:39:22;6.67;;;3.30;;
21301;SDS011;10810;48.270;9.996;2023-06-14T00:42:28;5.70;;;2.93;;
21301;SDS011;10810;48.270;9.996;2023-06-14T00:45:30;5.63;;;3.00;;
21301;SDS011;10810;48.270;9.996;2023-06-14T00:51:28;6.70;;;3.20;;
21301;SDS011;10810;48.270;9.996;2023-06-14T00:53:56;8.30;;;3.80;;
21301;SDS011;10810;48.270;9.996;2023-06-14T00:56:56;6.50;;;3.47;;
21301;SDS011;10810;48.270;9.996;2023-06-14T00:59:47;7.70;;;3.73;;
21301;SDS011;10810;48.270;9.996;2023-06-14T01:05:48;6.87;;;3.40;;
21301;SDS011;10810;48.270;9.996;2023-06-14T01:11:54;7.33;;;3.43;;
21301;SDS011;10810;48.270;9.996;2023-06-14T01:14:46;7.50;;;3.73;;
21301;SDS011;10810;48.270;9.996;2023-06-14T01:17:31;7.33;;;3.40;;
21301;SDS011;10810;48.270;9.996;2023-06-14T01:20:13;7.87;;;3.80;;
21301;SDS011;10810;48.270;9.996;2023-06-14T01:23:25;6.67;;;3.53;;
21301;SDS011;10810;48.270;9.996;2023-06-14T01:26:13;6.97;;;3.50;;
21301;SDS011;10810;48.270;9.996;2023-06-14T01:31:52;7.40;;;3.50;;
21301;SDS011;10810;48.270;9.996;2023-06-14T01:35:21;6.87;;;3.30;;
21301;SDS011;10810;48.270;9.996;2023-06-14T01:38:30;9.70;;;3.60;;
21301;SDS011;10810;48.270;9.996;2023-06-14T01:41:29;8.40;;;3.40;;
21301;SDS011;10810;48.270;9.996;2023-06-14T01:44:19;7.23;;;3.70;;
21301;SDS011;10810;48.270;9.996;2023-06-14T01:47:18;10.73;;;3.70;;
21301;SDS011;10810;48.270;9.996;2023-06-14T01:50:03;5.97;;;3.27;;
21301;SDS011;10810;48.270;9.996;2023-06-14T01:53:00;7.40;;;3.40;;
21301;SDS011;10810;48.270;9.996;2023-06-14T01:56:12;6.03;;;3.30;;
21301;SDS011;10810;48.270;9.996;2023-06-14T02:05:28;7.40;;;3.40;;
21301;SDS011;10810;48.270;9.996;2023-06-14T02:08:23;10.30;;;3.50;;
21301;SDS011;10810;48.270;9.996;2023-06-14T02:12:44;6.83;;;3.53;;
21301;SDS011;10810;48.270;9.996;2023-06-14T02:14:46;7.77;;;3.60;;
21301;SDS011;10810;48.270;9.996;2023-06-14T02:17:43;7.40;;;3.33;;
21301;SDS011;10810;48.270;9.996;2023-06-14T02:20:20;11.13;;;3.70;;
21301;SDS011;10810;48.270;9.996;2023-06-14T02:26:35;9.63;;;3.30;;
21301;SDS011;10810;48.270;9.996;2023-06-14T02:29:50;8.10;;;3.70;;
21301;SDS011;10810;48.270;9.996;2023-06-14T02:32:45;8.90;;;3.90;;
21301;SDS011;10810;48.270;9.996;2023-06-14T02:36:00;9.37;;;3.60;;
21301;SDS011;10810;48.270;9.996;2023-06-14T02:38:46;7.70;;;3.50;;
21301;SDS011;10810;48.270;9.996;2023-06-14T02:41:44;8.30;;;3.47;;
21301;SDS011;10810;48.270;9.996;2023-06-14T02:44:28;7.50;;;3.60;;
21301;SDS011;10810;48.270;9.996;2023-06-14T02:47:18;7.40;;;3.70;;
21301;SDS011;10810;48.270;9.996;2023-06-14T02:50:19;12.63;;;3.83;;
21301;SDS011;10810;48.270;9.996;2023-06-14T02:52:49;8.77;;;4.00;;
21301;SDS011;10810;48.270;9.996;2023-06-14T02:57:12;6.03;;;3.27;;
21301;SDS011;10810;48.270;9.996;2023-06-14T02:59:05;8.67;;;3.70;;
21301;SDS011;10810;48.270;9.996;2023-06-14T03:01:43;7.40;;;3.57;;
21301;SDS011;10810;48.270;9.996;2023-06-14T03:04:53;7.33;;;3.70;;
21301;SDS011;10810;48.270;9.996;2023-06-14T03:07:35;7.97;;;3.80;;
21301;SDS011;10810;48.270;9.996;2023-06-14T03:10:08;7.97;;;3.40;;
21301;SDS011;10810;48.270;9.996;2023-06-14T03:12:40;7.47;;;3.43;;
21301;SDS011;10810;48.270;9.996;2023-06-14T03:18:30;9.33;;;3.80;;
21301;SDS011;10810;48.270;9.996;2023-06-14T03:23:30;8.47;;;3.53;;
21301;SDS011;10810;48.270;9.996;2023-06-14T03:25:15;6.67;;;3.60;;
21301;SDS011;10810;48.270;9.996;2023-06-14T03:28:59;7.83;;;3.90;;
21301;SDS011;10810;48.270;9.996;2023-06-14T03:34:13;7.87;;;3.47;;
21301;SDS011;10810;48.270;9.996;2023-06-14T03:39:49;7.97;;;3.50;;
21301;SDS011;10810;48.270;9.996;2023-06-14T03:42:31;9.80;;;3.90;;
21301;SDS011;10810;48.270;9.996;2023-06-14T03:47:41;7.07;;;3.70;;
21301;SDS011;10810;48.270;9.996;2023-06-14T03:57:43;6.33;;;3.27;;
21301;SDS011;10810;48.270;9.996;2023-06-14T04:00:46;7.67;;;4.00;;
21301;SDS011;10810;48.270;9.996;2023-06-14T04:04:01;7.37;;;3.43;;
21301;SDS011;10810;48.270;9.996;2023-06-14T04:07:07;7.17;;;3.67;;
21301;SDS011;10810;48.270;9.996;2023-06-14T04:16:28;8.90;;;3.73;;
21301;SDS011;10810;48.270;9.996;2023-06-14T04:19:32;8.63;;;3.73;;
21301;SDS011;10810;48.270;9.996;2023-06-14T04:22:49;8.27;;;3.73;;
21301;SDS011;10810;48.270;9.996;2023-06-14T04:25:32;7.07;;;3.90;;
21301;SDS011;10810;48.270;9.996;2023-06-14T04:28:34;7.73;;;4.00;;
21301;SDS011;10810;48.270;9.996;2023-06-14T04:34:11;7.90;;;3.57;;
21301;SDS011;10810;48.270;9.996;2023-06-14T04:37:04;6.90;;;3.53;;
21301;SDS011;10810;48.270;9.996;2023-06-14T04:39:48;7.87;;;3.60;;
21301;SDS011;10810;48.270;9.996;2023-06-14T04:42:40;8.00;;;3.63;;
21301;SDS011;10810;48.270;9.996;2023-06-14T04:45:33;8.73;;;3.70;;
21301;SDS011;10810;48.270;9.996;2023-06-14T04:48:42;8.87;;;3.90;;
21301;SDS011;10810;48.270;9.996;2023-06-14T04:54:44;7.60;;;3.70;;
21301;SDS011;10810;48.270;9.996;2023-06-14T04:57:19;8.17;;;4.10;;
21301;SDS011;10810;48.270;9.996;2023-06-14T05:01:24;6.00;;;3.40;;
21301;SDS011;10810;48.270;9.996;2023-06-14T05:03:19;8.00;;;3.97;;
21301;SDS011;10810;48.270;9.996;2023-06-14T05:12:15;11.17;;;3.67;;
21301;SDS011;10810;48.270;9.996;2023-06-14T05:16:15;8.67;;;3.63;;
21301;SDS011;10810;48.270;9.996;2023-06-14T05:18:41;6.97;;;3.33;;
21301;SDS011;10810;48.270;9.996;2023-06-14T05:21:17;8.17;;;4.27;;
21301;SDS011;10810;48.270;9.996;2023-06-14T05:26:43;9.30;;;4.00;;
21301;SDS011;10810;48.270;9.996;2023-06-14T05:30:59;8.37;;;4.23;;
21301;SDS011;10810;48.270;9.996;2023-06-14T05:32:45;8.10;;;4.03;;
21301;SDS011;10810;48.270;9.996;2023-06-14T05:35:42;11.57;;;4.13;;
21301;SDS011;10810;48.270;9.996;2023-06-14T05:39:03;12.27;;;4.20;;
21301;SDS011;10810;48.270;9.996;2023-06-14T05:41:44;6.47;;;3.57;;
21301;SDS011;10810;48.270;9.996;2023-06-14T05:45:01;9.87;;;4.10;;
21301;SDS011;10810;48.270;9.996;2023-06-14T05:50:53;7.23;;;3.63;;
21301;SDS011;10810;48.270;9.996;2023-06-14T05:55:02;7.23;;;3.60;;
21301;SDS011;10810;48.270;9.996;2023-06-14T06:02:41;9.00;;;3.93;;
21301;SDS011;10810;48.270;9.996;2023-06-14T06:05:12;7.40;;;3.57;;
21301;SDS011;10810;48.270;9.996;2023-06-14T06:08:20;7.47;;;3.63;;
21301;SDS011;10810;48.270;9.996;2023-06-14T06:11:30;7.00;;;3.80;;
21301;SDS011;10810;48.270;9.996;2023-06-14T06:14:26;8.17;;;3.70;;
21301;SDS011;10810;48.270;9.996;2023-06-14T06:24:11;10.37;;;3.53;;
21301;SDS011;10810;48.270;9.996;2023-06-14T06:27:11;7.63;;;3.40;;
21301;SDS011;10810;48.270;9.996;2023-06-14T06:29:59;7.77;;;3.53;;
21301;SDS011;10810;48.270;9.996;2023-06-14T06:36:11;11.00;;;3.60;;
21301;SDS011;10810;48.270;9.996;2023-06-14T06:38:48;7.10;;;3.70;;
21301;SDS011;10810;48.270;9.996;2023-06-14T06:41:41;8.73;;;4.23;;
21301;SDS011;10810;48.270;9.996;2023-06-14T06:44:54;8.93;;;3.80;;
21301;SDS011;10810;48.270;9.996;2023-06-14T06:47:52;6.93;;;3.60;;
21301;SDS011;10810;48.270;9.996;2023-06-14T06:50:50;7.20;;;3.30;;
21301;SDS011;10810;48.270;9.996;2023-06-14T06:53:32;10.10;;;4.00;;
21301;SDS011;10810;48.270;9.996;2023-06-14T06:56:18;7.20;;;3.50;;
21301;SDS011;10810;48.270;9.996;2023-06-14T06:59:40;7.23;;;3.57;;
21301;SDS011;10810;48.270;9.996;2023-06-14T07:02:47;7.80;;;4.20;;
21301;SDS011;10810;48.270;9.996;2023-06-14T07:08:49;8.60;;;3.63;;
21301;SDS011;10810;48.270;9.996;2023-06-14T07:14:58;8.30;;;3.50;;
21301;SDS011;10810;48.270;9.996;2023-06-14T07:18:29;7.67;;;3.63;;
21301;SDS011;10810;48.270;9.996;2023-06-14T07:21:02;6.10;;;3.27;;
21301;SDS011;10810;48.270;9.996;2023-06-14T07:25:47;7.03;;;3.47;;
21301;SDS011;10810;48.270;9.996;2023-06-14T07:27:01;7.90;;;3.57;;
21301;SDS011;10810;48.270;9.996;2023-06-14T07:32:52;6.23;;;3.60;;
21301;SDS011;10810;48.270;9.996;2023-06-14T07:35:21;8.03;;;3.83;;
21301;SDS011;10810;48.270;9.996;2023-06-14T07:38:28;5.50;;;3.07;;
21301;SDS011;10810;48.270;9.996;2023-06-14T07:41:44;7.60;;;3.93;;
21301;SDS011;10810;48.270;9.996;2023-06-14T07:44:29;6.80;;;3.50;;
21301;SDS011;10810;48.270;9.996;2023-06-14T07:47:17;8.13;;;3.57;;
21301;SDS011;10810;48.270;9.996;2023-06-14T07:50:03;5.47;;;3.10;;
21301;SDS011;10810;48.270;9.996;2023-06-14T07:53:05;5.27;;;3.30;;
21301;SDS011;10810;48.270;9.996;2023-06-14T07:55:51;6.30;;;2.87;;
21301;SDS011;10810;48.270;9.996;2023-06-14T07:59:05;7.10;;;3.07;;
21301;SDS011;10810;48.270;9.996;2023-06-14T08:05:28;6.33;;;3.20;;
21301;SDS011;10810;48.270;9.996;2023-06-14T08:12:10;5.93;;;3.07;;
21301;SDS011;10810;48.270;9.996;2023-06-14T08:15:01;4.90;;;2.90;;
21301;SDS011;10810;48.270;9.996;2023-06-14T08:17:52;6.77;;;3.13;;
21301;SDS011;10810;48.270;9.996;2023-06-14T08:23:38;7.97;;;3.37;;
21301;SDS011;10810;48.270;9.996;2023-06-14T08:26:28;6.30;;;3.30;;
21301;SDS011;10810;48.270;9.996;2023-06-14T08:29:07;6.00;;;3.23;;
21301;SDS011;10810;48.270;9.996;2023-06-14T08:31:40;8.20;;;3.30;;
21301;SDS011;10810;48.270;9.996;2023-06-14T08:34:19;6.93;;;3.00;;
21301;SDS011;10810;48.270;9.996;2023-06-14T08:37:15;7.97;;;3.60;;
21301;SDS011;10810;48.270;9.996;2023-06-14T08:40:18;7.10;;;2.90;;
21301;SDS011;10810;48.270;9.996;2023-06-14T08:43:39;6.87;;;3.10;;
21301;SDS011;10810;48.270;9.996;2023-06-14T08:49:59;6.27;;;2.83;;
21301;SDS011;10810;48.270;9.996;2023-06-14T08:52:44;8.20;;;3.17;;
21301;SDS011;10810;48.270;9.996;2023-06-14T09:02:11;6.30;;;3.10;;
21301;SDS011;10810;48.270;9.996;2023-06-14T09:04:57;5.27;;;3.10;;
21301;SDS011;10810;48.270;9.996;2023-06-14T09:11:51;8.48;;;3.30;;
21301;SDS011;10810;48.270;9.996;2023-06-14T09:15:07;8.32;;;3.08;;
21301;SDS011;10810;48.270;9.996;2023-06-14T09:18:15;6.45;;;2.90;;
21301;SDS011;10810;48.270;9.996;2023-06-14T09:21:12;9.10;;;3.25;;
21301;SDS011;10810;48.270;9.996;2023-06-14T09:24:50;5.13;;;2.90;;
21301;SDS011;10810;48.270;9.996;2023-06-14T09:27:46;6.70;;;2.90;;
21301;SDS011;10810;48.270;9.996;2023-06-14T09:30:36;10.45;;;3.08;;
21301;SDS011;10810;48.270;9.996;2023-06-14T09:33:44;4.65;;;2.88;;
21301;SDS011;10810;48.270;9.996;2023-06-14T09:39:53;7.93;;;2.70;;
21301;SDS011;10810;48.270;9.996;2023-06-14T09:46:05;5.80;;;3.05;;
21301;SDS011;10810;48.270;9.996;2023-06-14T09:48:58;5.53;;;2.70;;
21301;SDS011;10810;48.270;9.996;2023-06-14T09:51:35;5.97;;;2.70;;
21301;SDS011;10810;48.270;9.996;2023-06-14T09:54:40;4.80;;;3.08;;
21301;SDS011;10810;48.270;9.996;2023-06-14T10:04:40;8.98;;;2.85;;
21301;SDS011;10810;48.270;9.996;2023-06-14T10:10:44;5.65;;;2.60;;
21301;SDS011;10810;48.270;9.996;2023-06-14T10:23:13;4.03;;;2.65;;
21301;SDS011;10810;48.270;9.996;2023-06-14T10:25:56;4.45;;;2.55;;
21301;SDS011;10810;48.270;9.996;2023-06-14T10:28:58;6.95;;;3.03;;
21301;SDS011;10810;48.270;9.996;2023-06-14T10:32:07;7.13;;;2.85;;
21301;SDS011;10810;48.270;9.996;2023-06-14T10:38:05;6.20;;;3.13;;
21301;SDS011;10810;48.270;9.996;2023-06-14T10:40:51;5.25;;;3.30;;
21301;SDS011;10810;48.270;9.996;2023-06-14T10:50:32;9.88;;;3.45;;
21301;SDS011;10810;48.270;9.996;2023-06-14T11:00:02;4.97;;;2.97;;
21301;SDS011;10810;48.270;9.996;2023-06-14T11:06:22;4.50;;;2.83;;
21301;SDS011;10810;48.270;9.996;2023-06-14T11:12:29;6.90;;;3.40;;
21301;SDS011;10810;48.270;9.996;2023-06-14T11:15:29;4.10;;;2.90;;
21301;SDS011;10810;48.270;9.996;2023-06-14T11:18:11;6.18;;;2.80;;
21301;SDS011;10810;48.270;9.996;2023-06-14T11:20:58;4.47;;;2.83;;
21301;SDS011;10810;48.270;9.996;2023-06-14T11:24:39;4.82;;;3.10;;
21301;SDS011;10810;48.270;9.996;2023-06-14T11:31:00;5.85;;;3.35;;
21301;SDS011;10810;48.270;9.996;2023-06-14T11:34:30;4.60;;;3.00;;
21301;SDS011;10810;48.270;9.996;2023-06-14T11:37:33;6.15;;;2.72;;
21301;SDS011;10810;48.270;9.996;2023-06-14T11:40:22;4.95;;;3.10;;
21301;SDS011;10810;48.270;9.996;2023-06-14T11:43:17;5.20;;;2.92;;
21301;SDS011;10810;48.270;9.996;2023-06-14T11:56:08;4.85;;;2.80;;
21301;SDS011;10810;48.270;9.996;2023-06-14T11:59:03;5.82;;;3.20;;
21301;SDS011;10810;48.270;9.996;2023-06-14T12:02:14;4.90;;;3.08;;
21301;SDS011;10810;48.270;9.996;2023-06-14T12:05:03;5.80;;;3.20;;
21301;SDS011;10810;48.270;9.996;2023-06-14T12:07:57;5.35;;;2.63;;
21301;SDS011;10810;48.270;9.996;2023-06-14T12:11:06;4.72;;;3.00;;
21301;SDS011;10810;48.270;9.996;2023-06-14T12:14:08;7.38;;;3.20;;
21301;SDS011;10810;48.270;9.996;2023-06-14T12:17:08;4.65;;;2.97;;
21301;SDS011;10810;48.270;9.996;2023-06-14T12:20:08;6.95;;;2.80;;
21301;SDS011;10810;48.270;9.996;2023-06-14T12:23:10;5.28;;;2.78;;
21301;SDS011;10810;48.270;9.996;2023-06-14T12:25:53;5.22;;;3.10;;
21301;SDS011;10810;48.270;9.996;2023-06-14T12:35:15;4.55;;;2.83;;
21301;SDS011;10810;48.270;9.996;2023-06-14T12:38:13;6.22;;;2.90;;
21301;SDS011;10810;48.270;9.996;2023-06-14T12:41:05;5.50;;;3.20;;
21301;SDS011;10810;48.270;9.996;2023-06-14T12:44:10;4.68;;;2.70;;
21301;SDS011;10810;48.270;9.996;2023-06-14T12:47:06;6.40;;;2.90;;
21301;SDS011;10810;48.270;9.996;2023-06-14T12:50:06;4.97;;;2.95;;
21301;SDS011;10810;48.270;9.996;2023-06-14T12:52:46;6.75;;;2.90;;
21301;SDS011;10810;48.270;9.996;2023-06-14T12:59:39;4.22;;;2.63;;
21301;SDS011;10810;48.270;9.996;2023-06-14T13:02:15;5.88;;;2.88;;
21301;SDS011;10810;48.270;9.996;2023-06-14T13:05:22;10.38;;;3.17;;
21301;SDS011;10810;48.270;9.996;2023-06-14T13:08:12;6.97;;;3.10;;
21301;SDS011;10810;48.270;9.996;2023-06-14T13:11:53;5.32;;;3.10;;
21301;SDS011;10810;48.270;9.996;2023-06-14T13:14:30;5.65;;;2.85;;
21301;SDS011;10810;48.270;9.996;2023-06-14T13:17:38;4.30;;;2.42;;
21301;SDS011;10810;48.270;9.996;2023-06-14T13:20:30;6.70;;;3.13;;
21301;SDS011;10810;48.270;9.996;2023-06-14T13:23:33;5.82;;;3.05;;
21301;SDS011;10810;48.270;9.996;2023-06-14T13:26:11;4.82;;;2.80;;
21301;SDS011;10810;48.270;9.996;2023-06-14T13:32:47;5.07;;;2.67;;
21301;SDS011;10810;48.270;9.996;2023-06-14T13:35:14;5.03;;;2.70;;
21301;SDS011;10810;48.270;9.996;2023-06-14T13:41:21;6.18;;;3.35;;
21301;SDS011;10810;48.270;9.996;2023-06-14T13:44:07;6.55;;;2.85;;
21301;SDS011;10810;48.270;9.996;2023-06-14T13:47:20;4.78;;;2.90;;
21301;SDS011;10810;48.270;9.996;2023-06-14T13:49:50;4.80;;;2.88;;
21301;SDS011;10810;48.270;9.996;2023-06-14T14:01:40;5.18;;;2.80;;
21301;SDS011;10810;48.270;9.996;2023-06-14T14:04:36;5.55;;;2.97;;
21301;SDS011;10810;48.270;9.996;2023-06-14T14:07:36;7.35;;;2.90;;
21301;SDS011;10810;48.270;9.996;2023-06-14T14:13:25;4.97;;;2.92;;
21301;SDS011;10810;48.270;9.996;2023-06-14T14:16:55;6.35;;;3.13;;
21301;SDS011;10810;48.270;9.996;2023-06-14T14:22:54;5.57;;;3.22;;
21301;SDS011;10810;48.270;9.996;2023-06-14T14:25:58;4.70;;;2.95;;
21301;SDS011;10810;48.270;9.996;2023-06-14T14:28:34;4.35;;;2.72;;
21301;SDS011;10810;48.270;9.996;2023-06-14T14:32:08;5.75;;;2.90;;
21301;SDS011;10810;48.270;9.996;2023-06-14T14:34:44;4.80;;;2.92;;
21301;SDS011;10810;48.270;9.996;2023-06-14T14:37:34;4.07;;;2.58;;
21301;SDS011;10810;48.270;9.996;2023-06-14T14:40:30;5.38;;;2.97;;
21301;SDS011;10810;48.270;9.996;2023-06-14T14:43:11;4.93;;;2.90;;
21301;SDS011;10810;48.270;9.996;2023-06-14T14:46:12;7.00;;;2.90;;
21301;SDS011;10810;48.270;9.996;2023-06-14T14:52:09;7.07;;;2.90;;
21301;SDS011;10810;48.270;9.996;2023-06-14T14:58:11;5.20;;;2.63;;
21301;SDS011;10810;48.270;9.996;2023-06-14T15:03:57;4.45;;;2.70;;
21301;SDS011;10810;48.270;9.996;2023-06-14T15:10:14;4.78;;;2.85;;
21301;SDS011;10810;48.270;9.996;2023-06-14T15:13:20;5.70;;;2.85;;
21301;SDS011;10810;48.270;9.996;2023-06-14T15:16:26;5.95;;;3.17;;
21301;SDS011;10810;48.270;9.996;2023-06-14T15:21:12;6.55;;;2.70;;
21301;SDS011;10810;48.270;9.996;2023-06-14T15:22:40;4.63;;;2.70;;
21301;SDS011;10810;48.270;9.996;2023-06-14T15:28:59;3.55;;;2.55;;
21301;SDS011;10810;48.270;9.996;2023-06-14T15:35:26;8.60;;;2.97;;
21301;SDS011;10810;48.270;9.996;2023-06-14T15:38:37;5.60;;;2.65;;
21301;SDS011;10810;48.270;9.996;2023-06-14T15:45:00;7.22;;;2.90;;
21301;SDS011;10810;48.270;9.996;2023-06-14T16:03:36;5.35;;;2.60;;
21301;SDS011;10810;48.270;9.996;2023-06-14T16:06:40;5.20;;;2.85;;
21301;SDS011;10810;48.270;9.996;2023-06-14T16:10:09;5.47;;;2.80;;
21301;SDS011;10810;48.270;9.996;2023-06-14T16:12:44;5.53;;;2.92;;
21301;SDS011;10810;48.270;9.996;2023-06-14T16:15:25;6.15;;;2.85;;
21301;SDS011;10810;48.270;9.996;2023-06-14T16:18:45;5.47;;;2.70;;
21301;SDS011;10810;48.270;9.996;2023-06-14T16:22:27;6.07;;;2.88;;
21301;SDS011;10810;48.270;9.996;2023-06-14T16:24:53;5.00;;;2.55;;
21301;SDS011;10810;48.270;9.996;2023-06-14T16:27:47;8.18;;;2.65;;
21301;SDS011;10810;48.270;9.996;2023-06-14T16:30:32;5.43;;;2.85;;
21301;SDS011;10810;48.270;9.996;2023-06-14T16:33:49;6.40;;;2.83;;
21301;SDS011;10810;48.270;9.996;2023-06-14T16:36:41;3.88;;;2.63;;
21301;SDS011;10810;48.270;9.996;2023-06-14T16:42:34;4.80;;;2.60;;
21301;SDS011;10810;48.270;9.996;2023-06-14T16:45:11;4.43;;;2.70;;
21301;SDS011;10810;48.270;9.996;2023-06-14T16:56:53;6.45;;;2.88;;
21301;SDS011;10810;48.270;9.996;2023-06-14T16:59:59;5.25;;;2.90;;
21301;SDS011;10810;48.270;9.996;2023-06-14T17:02:33;4.70;;;2.55;;
21301;SDS011;10810;48.270;9.996;2023-06-14T17:05:05;5.65;;;2.70;;
21301;SDS011;10810;48.270;9.996;2023-06-14T17:08:08;6.75;;;2.60;;
21301;SDS011;10810;48.270;9.996;2023-06-14T17:11:09;4.20;;;2.45;;
21301;SDS011;10810;48.270;9.996;2023-06-14T17:14:12;4.32;;;2.65;;
21301;SDS011;10810;48.270;9.996;2023-06-14T17:17:15;7.13;;;2.78;;
21301;SDS011;10810;48.270;9.996;2023-06-14T17:20:16;5.45;;;2.55;;
21301;SDS011;10810;48.270;9.996;2023-06-14T17:23:34;4.35;;;2.63;;
21301;SDS011;10810;48.270;9.996;2023-06-14T17:26:01;3.90;;;2.67;;
21301;SDS011;10810;48.270;9.996;2023-06-14T17:32:02;5.22;;;2.60;;
21301;SDS011;10810;48.270;9.996;2023-06-14T17:34:46;4.85;;;2.42;;
21301;SDS011;10810;48.270;9.996;2023-06-14T17:37:44;6.43;;;2.47;;
21301;SDS011;10810;48.270;9.996;2023-06-14T17:40:51;4.43;;;2.55;;
21301;SDS011;10810;48.270;9.996;2023-06-14T17:46:54;6.82;;;3.08;;
21301;SDS011;10810;48.270;9.996;2023-06-14T17:50:05;4.43;;;2.75;;
21301;SDS011;10810;48.270;9.996;2023-06-14T17:53:07;4.97;;;2.90;;
21301;SDS011;10810;48.270;9.996;2023-06-14T17:55:50;4.30;;;2.53;;
21301;SDS011;10810;48.270;9.996;2023-06-14T17:58:41;4.55;;;2.75;;
21301;SDS011;10810;48.270;9.996;2023-06-14T18:04:31;5.50;;;2.75;;
21301;SDS011;10810;48.270;9.996;2023-06-14T18:11:06;4.95;;;2.70;;
21301;SDS011;10810;48.270;9.996;2023-06-14T18:13:46;5.38;;;3.00;;
21301;SDS011;10810;48.270;9.996;2023-06-14T18:16:38;4.53;;;2.75;;
21301;SDS011;10810;48.270;9.996;2023-06-14T18:19:06;4.85;;;2.72;;
21301;SDS011;10810;48.270;9.996;2023-06-14T18:21:38;4.85;;;2.72;;
21301;SDS011;10810;48.270;9.996;2023-06-14T18:24:37;5.90;;;2.88;;
21301;SDS011;10810;48.270;9.996;2023-06-14T18:29:22;5.05;;;3.08;;
21301;SDS011;10810;48.270;9.996;2023-06-14T18:30:23;5.78;;;2.90;;
21301;SDS011;10810;48.270;9.996;2023-06-14T18:33:03;4.22;;;2.60;;
21301;SDS011;10810;48.270;9.996;2023-06-14T18:36:09;4.85;;;2.80;;
21301;SDS011;10810;48.270;9.996;2023-06-14T18:39:02;4.32;;;2.88;;
21301;SDS011;10810;48.270;9.996;2023-06-14T18:41:57;6.97;;;3.08;;
21301;SDS011;10810;48.270;9.996;2023-06-14T18:47:34;5.45;;;3.05;;
21301;SDS011;10810;48.270;9.996;2023-06-14T18:50:20;5.82;;;2.88;;
21301;SDS011;10810;48.270;9.996;2023-06-14T19:06:18;4.78;;;3.00;;
21301;SDS011;10810;48.270;9.996;2023-06-14T19:09:15;5.43;;;2.80;;
21301;SDS011;10810;48.270;9.996;2023-06-14T19:12:19;5.45;;;2.88;;
21301;SDS011;10810;48.270;9.996;2023-06-14T19:15:15;4.63;;;2.80;;
21301;SDS011;10810;48.270;9.996;2023-06-14T19:18:20;7.68;;;2.60;;
21301;SDS011;10810;48.270;9.996;2023-06-14T19:21:30;6.03;;;2.93;;
21301;SDS011;10810;48.270;9.996;2023-06-14T19:35:21;5.47;;;2.97;;
21301;SDS011;10810;48.270;9.996;2023-06-14T19:37:46;5.67;;;3.20;;
21301;SDS011;10810;48.270;9.996;2023-06-14T19:44:01;7.80;;;3.27;;
21301;SDS011;10810;48.270;9.996;2023-06-14T19:46:50;4.77;;;2.80;;
21301;SDS011;10810;48.270;9.996;2023-06-14T19:49:53;6.03;;;3.13;;
21301;SDS011;10810;48.270;9.996;2023-06-14T19:56:05;6.33;;;3.10;;
21301;SDS011;10810;48.270;9.996;2023-06-14T19:58:48;6.87;;;3.40;;
21301;SDS011;10810;48.270;9.996;2023-06-14T20:04:46;6.50;;;3.10;;
21301;SDS011;10810;48.270;9.996;2023-06-14T20:07:32;7.63;;;3.10;;
21301;SDS011;10810;48.270;9.996;2023-06-14T20:16:57;6.83;;;3.40;;
21301;SDS011;10810;48.270;9.996;2023-06-14T20:20:01;6.03;;;3.40;;
21301;SDS011;10810;48.270;9.996;2023-06-14T20:23:14;7.07;;;3.60;;
21301;SDS011;10810;48.270;9.996;2023-06-14T20:26:46;6.30;;;3.13;;
21301;SDS011;10810;48.270;9.996;2023-06-14T20:29:45;7.00;;;3.13;;
21301;SDS011;10810;48.270;9.996;2023-06-14T20:32:26;5.13;;;2.93;;
21301;SDS011;10810;48.270;9.996;2023-06-14T20:35:10;5.87;;;3.27;;
21301;SDS011;10810;48.270;9.996;2023-06-14T20:41:53;15.80;;;3.83;;
21301;SDS011;10810;48.270;9.996;2023-06-14T20:44:30;6.37;;;3.07;;
21301;SDS011;10810;48.270;9.996;2023-06-14T20:54:31;5.70;;;3.43;;
21301;SDS011;10810;48.270;9.996;2023-06-14T20:58:03;6.53;;;3.57;;
21301;SDS011;10810;48.270;9.996;2023-06-14T21:00:58;8.33;;;3.70;;
21301;SDS011;10810;48.270;9.996;2023-06-14T21:03:54;7.20;;;3.50;;
21301;SDS011;10810;48.270;9.996;2023-06-14T21:10:18;6.83;;;3.63;;
21301;SDS011;10810;48.270;9.996;2023-06-14T21:13:14;6.90;;;3.87;;
21301;SDS011;10810;48.270;9.996;2023-06-14T21:16:32;6.40;;;3.30;;
21301;SDS011;10810;48.270;9.996;2023-06-14T21:19:41;6.47;;;3.57;;
21301;SDS011;10810;48.270;9.996;2023-06-14T21:22:56;6.50;;;3.63;;
21301;SDS011;10810;48.270;9.996;2023-06-14T21:25:54;6.20;;;3.60;;
21301;SDS011;10810;48.270;9.996;2023-06-14T21:29:06;6.10;;;3.70;;
21301;SDS011;10810;48.270;9.996;2023-06-14T21:38:29;8.40;;;3.43;;
21301;SDS011;10810;48.270;9.996;2023-06-14T21:44:38;7.83;;;3.53;;
21301;SDS011;10810;48.270;9.996;2023-06-14T21:50:13;8.50;;;3.60;;
21301;SDS011;10810;48.270;9.996;2023-06-14T21:56:27;7.17;;;3.77;;
21301;SDS011;10810;48.270;9.996;2023-06-14T22:00:16;7.87;;;4.17;;
21301;SDS011;10810;48.270;9.996;2023-06-14T22:02:13;8.00;;;4.20;;
21301;SDS011;10810;48.270;9.996;2023-06-14T22:08:52;7.47;;;4.37;;
21301;SDS011;10810;48.270;9.996;2023-06-14T22:11:41;7.57;;;3.63;;
21301;SDS011;10810;48.270;9.996;2023-06-14T22:14:59;7.37;;;3.93;;
21301;SDS011;10810;48.270;9.996;2023-06-14T22:20:54;6.70;;;3.57;;
21301;SDS011;10810;48.270;9.996;2023-06-14T22:23:40;6.30;;;3.70;;
21301;SDS011;10810;48.270;9.996;2023-06-14T22:26:16;6.67;;;3.67;;
21301;SDS011;10810;48.270;9.996;2023-06-14T22:28:56;7.53;;;3.93;;
21301;SDS011;10810;48.270;9.996;2023-06-14T22:31:58;6.53;;;3.67;;
21301;SDS011;10810;48.270;9.996;2023-06-14T22:35:45;8.00;;;4.33;;
21301;SDS011;10810;48.270;9.996;2023-06-14T22:38:03;8.53;;;4.37;;
21301;SDS011;10810;48.270;9.996;2023-06-14T22:40:46;10.43;;;4.30;;
21301;SDS011;10810;48.270;9.996;2023-06-14T22:49:57;8.33;;;4.27;;
21301;SDS011;10810;48.270;9.996;2023-06-14T22:52:35;8.27;;;3.80;;
21301;SDS011;10810;48.270;9.996;2023-06-14T22:58:54;7.50;;;4.10;;
21301;SDS011;10810;48.270;9.996;2023-06-14T23:08:14;7.60;;;3.97;;
21301;SDS011;10810;48.270;9.996;2023-06-14T23:10:52;9.87;;;4.30;;
21301;SDS011;10810;48.270;9.996;2023-06-14T23:13:44;8.50;;;4.40;;
21301;SDS011;10810;48.270;9.996;2023-06-14T23:16:19;5.43;;;3.60;;
21301;SDS011;10810;48.270;9.996;2023-06-14T23:20:33;7.50;;;4.10;;
21301;SDS011;10810;48.270;9.996;2023-06-14T23:25:11;10.23;;;4.50;;
21301;SDS011;10810;48.270;9.996;2023-06-14T23:28:12;7.47;;;4.13;;
21301;SDS011;10810;48.270;9.996;2023-06-14T23:31:20;7.70;;;4.37;;
21301;SDS011;10810;48.270;9.996;2023-06-14T23:37:16;8.37;;;4.30;;
21301;SDS011;10810;48.270;9.996;2023-06-14T23:46:30;7.30;;;4.20;;
21301;SDS011;10810;48.270;9.996;2023-06-14T23:53:39;9.30;;;4.23;;
21301;SDS011;10810;48.270;9.996;2023-06-14T23:55:12;9.43;;;4.07;;
21301;SDS011;10810;48.270;9.996;2023-06-14T23:58:37;6.93;;;3.73;;
